sensor_id;sensor_type;location;lat;lon;timestamp;P1;durP1;ratioP1;P2;durP2;ratioP2
42666;SDS011;28280;49.646;14.130;2023-02-11T00:02:30;31.13;;;17.02;;
42666;SDS011;28280;49.646;14.130;2023-02-11T00:08:01;30.30;;;16.85;;
42666;SDS011;28280;49.646;14.130;2023-02-11T00:13:33;32.42;;;16.70;;
42666;SDS011;28280;49.646;14.130;2023-02-11T00:19:04;28.02;;;15.75;;
42666;SDS011;28280;49.646;14.130;2023-02-11T00:24:36;32.45;;;17.20;;
42666;SDS011;28280;49.646;14.130;2023-02-11T00:30:07;33.25;;;16.88;;
42666;SDS011;28280;49.646;14.130;2023-02-11T00:35:40;33.30;;;17.63;;
42666;SDS011;28280;49.646;14.130;2023-02-11T00:41:12;33.13;;;17.83;;
42666;SDS011;28280;49.646;14.130;2023-02-11T00:46:43;35.30;;;18.25;;
42666;SDS011;28280;49.646;14.130;2023-02-11T00:52:15;32.42;;;17.48;;
42666;SDS011;28280;49.646;14.130;2023-02-11T00:57:46;33.40;;;18.35;;
42666;SDS011;28280;49.646;14.130;2023-02-11T01:03:19;33.97;;;18.05;;
42666;SDS011;28280;49.646;14.130;2023-02-11T01:08:50;39.67;;;19.33;;
42666;SDS011;28280;49.646;14.130;2023-02-11T01:14:21;37.25;;;18.83;;
42666;SDS011;28280;49.646;14.130;2023-02-11T01:19:54;37.00;;;19.17;;
42666;SDS011;28280;49.646;14.130;2023-02-11T01:25:25;39.03;;;18.77;;
42666;SDS011;28280;49.646;14.130;2023-02-11T01:30:56;37.55;;;19.73;;
42666;SDS011;28280;49.646;14.130;2023-02-11T01:36:28;31.40;;;18.35;;
42666;SDS011;28280;49.646;14.130;2023-02-11T01:41:59;34.47;;;18.17;;
42666;SDS011;28280;49.646;14.130;2023-02-11T01:47:33;35.10;;;19.08;;
42666;SDS011;28280;49.646;14.130;2023-02-11T01:53:03;33.72;;;17.90;;
42666;SDS011;28280;49.646;14.130;2023-02-11T01:58:54;36.80;;;18.27;;
42666;SDS011;28280;49.646;14.130;2023-02-11T02:04:32;34.47;;;17.83;;
42666;SDS011;28280;49.646;14.130;2023-02-11T02:10:07;35.28;;;18.25;;
42666;SDS011;28280;49.646;14.130;2023-02-11T02:15:49;34.42;;;16.15;;
42666;SDS011;28280;49.646;14.130;2023-02-11T02:27:29;30.42;;;16.40;;
42666;SDS011;28280;49.646;14.130;2023-02-11T02:39:10;27.52;;;15.13;;
42666;SDS011;28280;49.646;14.130;2023-02-11T02:44:48;29.98;;;15.38;;
42666;SDS011;28280;49.646;14.130;2023-02-11T02:50:22;28.45;;;14.75;;
42666;SDS011;28280;49.646;14.130;2023-02-11T02:56:18;26.27;;;14.32;;
42666;SDS011;28280;49.646;14.130;2023-02-11T03:02:13;27.80;;;14.13;;
42666;SDS011;28280;49.646;14.130;2023-02-11T03:13:35;25.55;;;13.73;;
42666;SDS011;28280;49.646;14.130;2023-02-11T03:19:12;23.98;;;13.00;;
42666;SDS011;28280;49.646;14.130;2023-02-11T03:24:53;25.60;;;13.45;;
42666;SDS011;28280;49.646;14.130;2023-02-11T03:30:26;24.45;;;13.93;;
42666;SDS011;28280;49.646;14.130;2023-02-11T03:36:03;26.40;;;13.07;;
42666;SDS011;28280;49.646;14.130;2023-02-11T03:41:38;25.13;;;13.23;;
42666;SDS011;28280;49.646;14.130;2023-02-11T03:47:11;23.08;;;12.45;;
42666;SDS011;28280;49.646;14.130;2023-02-11T03:52:45;23.75;;;12.82;;
42666;SDS011;28280;49.646;14.130;2023-02-11T03:58:17;21.70;;;12.18;;
42666;SDS011;28280;49.646;14.130;2023-02-11T04:03:48;23.30;;;13.02;;
42666;SDS011;28280;49.646;14.130;2023-02-11T04:09:19;24.05;;;12.77;;
42666;SDS011;28280;49.646;14.130;2023-02-11T04:14:50;22.13;;;12.60;;
42666;SDS011;28280;49.646;14.130;2023-02-11T04:20:21;25.02;;;12.98;;
42666;SDS011;28280;49.646;14.130;2023-02-11T04:25:53;20.33;;;11.48;;
42666;SDS011;28280;49.646;14.130;2023-02-11T04:31:24;22.23;;;12.05;;
42666;SDS011;28280;49.646;14.130;2023-02-11T04:36:55;22.80;;;13.07;;
42666;SDS011;28280;49.646;14.130;2023-02-11T04:42:26;24.52;;;11.70;;
42666;SDS011;28280;49.646;14.130;2023-02-11T04:47:57;25.17;;;12.63;;
42666;SDS011;28280;49.646;14.130;2023-02-11T04:53:29;23.38;;;12.48;;
42666;SDS011;28280;49.646;14.130;2023-02-11T04:59:00;24.23;;;12.02;;
42666;SDS011;28280;49.646;14.130;2023-02-11T05:04:31;21.90;;;12.02;;
42666;SDS011;28280;49.646;14.130;2023-02-11T05:10:03;23.45;;;11.95;;
42666;SDS011;28280;49.646;14.130;2023-02-11T05:15:34;23.50;;;12.38;;
42666;SDS011;28280;49.646;14.130;2023-02-11T05:21:06;21.08;;;12.05;;
42666;SDS011;28280;49.646;14.130;2023-02-11T05:26:38;22.20;;;12.27;;
42666;SDS011;28280;49.646;14.130;2023-02-11T05:32:09;26.88;;;12.82;;
42666;SDS011;28280;49.646;14.130;2023-02-11T05:37:41;22.63;;;11.98;;
42666;SDS011;28280;49.646;14.130;2023-02-11T05:43:13;22.60;;;12.73;;
42666;SDS011;28280;49.646;14.130;2023-02-11T05:48:44;23.75;;;11.98;;
42666;SDS011;28280;49.646;14.130;2023-02-11T05:54:15;23.52;;;12.45;;
42666;SDS011;28280;49.646;14.130;2023-02-11T05:59:46;22.58;;;11.60;;
42666;SDS011;28280;49.646;14.130;2023-02-11T06:05:18;24.02;;;11.93;;
42666;SDS011;28280;49.646;14.130;2023-02-11T06:10:49;23.20;;;11.88;;
42666;SDS011;28280;49.646;14.130;2023-02-11T06:16:20;22.15;;;12.15;;
42666;SDS011;28280;49.646;14.130;2023-02-11T06:21:52;24.10;;;12.60;;
42666;SDS011;28280;49.646;14.130;2023-02-11T06:27:23;25.10;;;12.75;;
42666;SDS011;28280;49.646;14.130;2023-02-11T06:32:55;26.27;;;12.65;;
42666;SDS011;28280;49.646;14.130;2023-02-11T06:38:26;26.38;;;13.45;;
42666;SDS011;28280;49.646;14.130;2023-02-11T06:43:58;26.45;;;13.02;;
42666;SDS011;28280;49.646;14.130;2023-02-11T06:49:29;25.48;;;12.38;;
42666;SDS011;28280;49.646;14.130;2023-02-11T06:55:00;25.10;;;12.23;;
42666;SDS011;28280;49.646;14.130;2023-02-11T07:00:32;24.65;;;12.88;;
42666;SDS011;28280;49.646;14.130;2023-02-11T07:06:04;23.98;;;12.20;;
42666;SDS011;28280;49.646;14.130;2023-02-11T07:11:36;26.08;;;11.98;;
42666;SDS011;28280;49.646;14.130;2023-02-11T07:17:07;22.75;;;12.20;;
42666;SDS011;28280;49.646;14.130;2023-02-11T07:22:38;24.33;;;12.52;;
42666;SDS011;28280;49.646;14.130;2023-02-11T07:28:10;24.88;;;12.77;;
42666;SDS011;28280;49.646;14.130;2023-02-11T07:33:41;24.80;;;12.68;;
42666;SDS011;28280;49.646;14.130;2023-02-11T07:39:15;23.00;;;12.07;;
42666;SDS011;28280;49.646;14.130;2023-02-11T07:44:46;24.95;;;13.05;;
42666;SDS011;28280;49.646;14.130;2023-02-11T07:50:20;23.17;;;11.85;;
42666;SDS011;28280;49.646;14.130;2023-02-11T07:55:51;23.27;;;11.05;;
42666;SDS011;28280;49.646;14.130;2023-02-11T08:01:23;23.30;;;12.02;;
42666;SDS011;28280;49.646;14.130;2023-02-11T08:06:58;21.20;;;11.73;;
42666;SDS011;28280;49.646;14.130;2023-02-11T08:12:29;21.50;;;11.48;;
42666;SDS011;28280;49.646;14.130;2023-02-11T08:18:01;23.20;;;11.50;;
42666;SDS011;28280;49.646;14.130;2023-02-11T08:23:32;19.05;;;10.52;;
42666;SDS011;28280;49.646;14.130;2023-02-11T08:29:08;19.45;;;9.95;;
42666;SDS011;28280;49.646;14.130;2023-02-11T08:34:41;21.20;;;10.50;;
42666;SDS011;28280;49.646;14.130;2023-02-11T08:40:12;18.02;;;10.20;;
42666;SDS011;28280;49.646;14.130;2023-02-11T08:45:43;21.52;;;10.88;;
42666;SDS011;28280;49.646;14.130;2023-02-11T08:51:16;58.17;;;13.32;;
42666;SDS011;28280;49.646;14.130;2023-02-11T08:56:55;47.20;;;14.77;;
42666;SDS011;28280;49.646;14.130;2023-02-11T09:02:27;61.65;;;14.18;;
42666;SDS011;28280;49.646;14.130;2023-02-11T09:07:59;44.88;;;13.85;;
42666;SDS011;28280;49.646;14.130;2023-02-11T09:13:30;44.80;;;13.23;;
42666;SDS011;28280;49.646;14.130;2023-02-11T09:19:02;29.85;;;12.73;;
42666;SDS011;28280;49.646;14.130;2023-02-11T09:24:35;27.83;;;12.60;;
42666;SDS011;28280;49.646;14.130;2023-02-11T09:30:06;29.67;;;11.68;;
42666;SDS011;28280;49.646;14.130;2023-02-11T09:35:37;29.30;;;11.80;;
42666;SDS011;28280;49.646;14.130;2023-02-11T09:47:05;33.25;;;11.30;;
42666;SDS011;28280;49.646;14.130;2023-02-11T09:52:47;28.23;;;12.05;;
42666;SDS011;28280;49.646;14.130;2023-02-11T10:04:00;29.13;;;12.90;;
42666;SDS011;28280;49.646;14.130;2023-02-11T10:15:47;28.60;;;12.00;;
42666;SDS011;28280;49.646;14.130;2023-02-11T10:21:50;26.08;;;12.05;;
42666;SDS011;28280;49.646;14.130;2023-02-11T10:27:31;22.38;;;11.80;;
42666;SDS011;28280;49.646;14.130;2023-02-11T10:33:14;25.80;;;12.05;;
42666;SDS011;28280;49.646;14.130;2023-02-11T10:38:50;23.67;;;11.35;;
42666;SDS011;28280;49.646;14.130;2023-02-11T10:49:57;21.65;;;11.70;;
42666;SDS011;28280;49.646;14.130;2023-02-11T10:55:33;23.00;;;12.65;;
42666;SDS011;28280;49.646;14.130;2023-02-11T11:01:04;24.77;;;13.32;;
42666;SDS011;28280;49.646;14.130;2023-02-11T11:06:53;25.83;;;12.77;;
42666;SDS011;28280;49.646;14.130;2023-02-11T11:12:30;24.33;;;12.68;;
42666;SDS011;28280;49.646;14.130;2023-02-11T11:18:17;24.67;;;13.68;;
42666;SDS011;28280;49.646;14.130;2023-02-11T11:23:57;23.40;;;12.65;;
42666;SDS011;28280;49.646;14.130;2023-02-11T11:35:19;22.42;;;12.68;;
42666;SDS011;28280;49.646;14.130;2023-02-11T11:58:31;20.40;;;12.18;;
42666;SDS011;28280;49.646;14.130;2023-02-11T12:15:54;24.30;;;13.18;;
42666;SDS011;28280;49.646;14.130;2023-02-11T13:08:04;24.55;;;13.23;;
42666;SDS011;28280;49.646;14.130;2023-02-11T13:13:57;22.67;;;12.85;;
42666;SDS011;28280;49.646;14.130;2023-02-11T13:31:00;24.17;;;13.32;;
42666;SDS011;28280;49.646;14.130;2023-02-11T13:36:33;23.17;;;13.13;;
42666;SDS011;28280;49.646;14.130;2023-02-11T13:42:05;22.38;;;12.82;;
42666;SDS011;28280;49.646;14.130;2023-02-11T13:47:36;23.00;;;12.57;;
42666;SDS011;28280;49.646;14.130;2023-02-11T13:53:07;21.60;;;12.05;;
42666;SDS011;28280;49.646;14.130;2023-02-11T13:58:46;23.02;;;12.93;;
42666;SDS011;28280;49.646;14.130;2023-02-11T14:04:22;19.05;;;11.02;;
42666;SDS011;28280;49.646;14.130;2023-02-11T14:16:16;19.40;;;10.90;;
42666;SDS011;28280;49.646;14.130;2023-02-11T14:28:06;22.85;;;12.07;;
42666;SDS011;28280;49.646;14.130;2023-02-11T14:33:49;20.75;;;10.93;;
42666;SDS011;28280;49.646;14.130;2023-02-11T14:45:12;21.83;;;10.88;;
42666;SDS011;28280;49.646;14.130;2023-02-11T14:50:51;18.80;;;10.82;;
42666;SDS011;28280;49.646;14.130;2023-02-11T14:56:33;19.40;;;10.77;;
42666;SDS011;28280;49.646;14.130;2023-02-11T15:02:19;22.52;;;11.23;;
42666;SDS011;28280;49.646;14.130;2023-02-11T15:07:59;18.45;;;10.68;;
42666;SDS011;28280;49.646;14.130;2023-02-11T15:13:32;19.23;;;11.00;;
42666;SDS011;28280;49.646;14.130;2023-02-11T15:19:03;19.27;;;11.40;;
42666;SDS011;28280;49.646;14.130;2023-02-11T15:24:36;20.58;;;10.98;;
42666;SDS011;28280;49.646;14.130;2023-02-11T15:35:52;18.42;;;10.70;;
42666;SDS011;28280;49.646;14.130;2023-02-11T15:41:32;18.48;;;10.20;;
42666;SDS011;28280;49.646;14.130;2023-02-11T15:47:17;19.15;;;10.85;;
42666;SDS011;28280;49.646;14.130;2023-02-11T15:52:51;19.87;;;11.97;;
42666;SDS011;28280;49.646;14.130;2023-02-11T15:58:23;20.67;;;11.90;;
42666;SDS011;28280;49.646;14.130;2023-02-11T16:03:56;21.00;;;10.95;;
42666;SDS011;28280;49.646;14.130;2023-02-11T16:09:34;20.65;;;11.10;;
42666;SDS011;28280;49.646;14.130;2023-02-11T16:21:01;18.98;;;11.40;;
42666;SDS011;28280;49.646;14.130;2023-02-11T16:26:40;20.25;;;11.52;;
42666;SDS011;28280;49.646;14.130;2023-02-11T16:32:22;19.98;;;10.82;;
42666;SDS011;28280;49.646;14.130;2023-02-11T16:37:54;25.23;;;12.45;;
42666;SDS011;28280;49.646;14.130;2023-02-11T16:43:26;19.50;;;10.95;;
42666;SDS011;28280;49.646;14.130;2023-02-11T16:48:57;23.67;;;12.10;;
42666;SDS011;28280;49.646;14.130;2023-02-11T16:54:36;20.23;;;11.35;;
42666;SDS011;28280;49.646;14.130;2023-02-11T17:00:08;21.60;;;12.00;;
42666;SDS011;28280;49.646;14.130;2023-02-11T17:05:41;22.58;;;11.93;;
42666;SDS011;28280;49.646;14.130;2023-02-11T17:11:25;22.23;;;12.27;;
42666;SDS011;28280;49.646;14.130;2023-02-11T17:16:57;24.13;;;12.98;;
42666;SDS011;28280;49.646;14.130;2023-02-11T17:22:28;24.08;;;13.07;;
42666;SDS011;28280;49.646;14.130;2023-02-11T17:27:59;22.08;;;12.52;;
42666;SDS011;28280;49.646;14.130;2023-02-11T17:33:31;24.13;;;12.63;;
42666;SDS011;28280;49.646;14.130;2023-02-11T17:39:05;23.60;;;12.32;;
42666;SDS011;28280;49.646;14.130;2023-02-11T17:44:37;23.63;;;12.80;;
42666;SDS011;28280;49.646;14.130;2023-02-11T17:50:08;20.58;;;12.85;;
42666;SDS011;28280;49.646;14.130;2023-02-11T17:55:41;23.38;;;12.90;;
42666;SDS011;28280;49.646;14.130;2023-02-11T18:01:12;23.40;;;12.13;;
42666;SDS011;28280;49.646;14.130;2023-02-11T18:06:44;21.67;;;11.63;;
42666;SDS011;28280;49.646;14.130;2023-02-11T18:12:15;19.85;;;11.35;;
42666;SDS011;28280;49.646;14.130;2023-02-11T18:17:54;20.75;;;11.85;;
42666;SDS011;28280;49.646;14.130;2023-02-11T18:23:26;22.00;;;12.15;;
42666;SDS011;28280;49.646;14.130;2023-02-11T18:28:58;20.50;;;11.63;;
42666;SDS011;28280;49.646;14.130;2023-02-11T18:34:30;21.60;;;12.43;;
42666;SDS011;28280;49.646;14.130;2023-02-11T18:40:03;24.95;;;12.40;;
42666;SDS011;28280;49.646;14.130;2023-02-11T18:45:34;20.95;;;12.00;;
42666;SDS011;28280;49.646;14.130;2023-02-11T18:51:16;23.80;;;12.73;;
42666;SDS011;28280;49.646;14.130;2023-02-11T18:56:50;16.90;;;10.30;;
42666;SDS011;28280;49.646;14.130;2023-02-11T19:02:21;18.17;;;11.18;;
42666;SDS011;28280;49.646;14.130;2023-02-11T19:07:57;22.17;;;12.63;;
42666;SDS011;28280;49.646;14.130;2023-02-11T19:13:29;21.60;;;11.68;;
42666;SDS011;28280;49.646;14.130;2023-02-11T19:19:00;24.10;;;11.50;;
42666;SDS011;28280;49.646;14.130;2023-02-11T19:24:32;19.17;;;11.02;;
42666;SDS011;28280;49.646;14.130;2023-02-11T19:30:03;19.90;;;11.65;;
42666;SDS011;28280;49.646;14.130;2023-02-11T19:35:35;24.45;;;12.23;;
42666;SDS011;28280;49.646;14.130;2023-02-11T19:41:07;17.80;;;10.68;;
42666;SDS011;28280;49.646;14.130;2023-02-11T19:46:39;19.95;;;11.02;;
42666;SDS011;28280;49.646;14.130;2023-02-11T19:52:11;19.48;;;10.88;;
42666;SDS011;28280;49.646;14.130;2023-02-11T19:57:42;21.95;;;11.48;;
42666;SDS011;28280;49.646;14.130;2023-02-11T20:03:13;19.48;;;11.20;;
42666;SDS011;28280;49.646;14.130;2023-02-11T20:08:44;20.67;;;11.75;;
42666;SDS011;28280;49.646;14.130;2023-02-11T20:14:15;20.00;;;11.20;;
42666;SDS011;28280;49.646;14.130;2023-02-11T20:19:47;20.77;;;11.27;;
42666;SDS011;28280;49.646;14.130;2023-02-11T20:25:18;21.67;;;11.95;;
42666;SDS011;28280;49.646;14.130;2023-02-11T20:30:58;20.73;;;11.10;;
42666;SDS011;28280;49.646;14.130;2023-02-11T20:36:30;20.35;;;10.68;;
42666;SDS011;28280;49.646;14.130;2023-02-11T20:42:07;19.17;;;10.88;;
42666;SDS011;28280;49.646;14.130;2023-02-11T20:47:40;22.08;;;12.23;;
42666;SDS011;28280;49.646;14.130;2023-02-11T20:53:12;21.08;;;11.75;;
42666;SDS011;28280;49.646;14.130;2023-02-11T20:58:43;20.15;;;11.38;;
42666;SDS011;28280;49.646;14.130;2023-02-11T21:04:18;20.58;;;11.00;;
42666;SDS011;28280;49.646;14.130;2023-02-11T21:09:59;20.70;;;11.77;;
42666;SDS011;28280;49.646;14.130;2023-02-11T21:15:31;18.80;;;10.10;;
42666;SDS011;28280;49.646;14.130;2023-02-11T21:21:02;20.42;;;10.43;;
42666;SDS011;28280;49.646;14.130;2023-02-11T21:26:36;20.27;;;11.07;;
42666;SDS011;28280;49.646;14.130;2023-02-11T21:32:08;17.63;;;9.68;;
42666;SDS011;28280;49.646;14.130;2023-02-11T21:37:39;19.55;;;11.25;;
42666;SDS011;28280;49.646;14.130;2023-02-11T21:43:10;20.75;;;11.32;;
42666;SDS011;28280;49.646;14.130;2023-02-11T21:48:41;18.50;;;10.93;;
42666;SDS011;28280;49.646;14.130;2023-02-11T21:54:13;22.00;;;11.52;;
42666;SDS011;28280;49.646;14.130;2023-02-11T21:59:44;17.77;;;10.38;;
42666;SDS011;28280;49.646;14.130;2023-02-11T22:05:15;21.70;;;11.90;;
42666;SDS011;28280;49.646;14.130;2023-02-11T22:10:46;18.92;;;11.23;;
42666;SDS011;28280;49.646;14.130;2023-02-11T22:16:17;22.75;;;12.20;;
42666;SDS011;28280;49.646;14.130;2023-02-11T22:21:49;22.98;;;11.82;;
42666;SDS011;28280;49.646;14.130;2023-02-11T22:27:20;22.67;;;11.73;;
42666;SDS011;28280;49.646;14.130;2023-02-11T22:32:52;20.35;;;10.65;;
42666;SDS011;28280;49.646;14.130;2023-02-11T22:38:23;20.90;;;11.35;;
42666;SDS011;28280;49.646;14.130;2023-02-11T22:43:54;20.25;;;11.70;;
42666;SDS011;28280;49.646;14.130;2023-02-11T22:49:25;20.95;;;12.02;;
42666;SDS011;28280;49.646;14.130;2023-02-11T22:54:59;19.37;;;11.83;;
42666;SDS011;28280;49.646;14.130;2023-02-11T23:00:31;20.05;;;11.70;;
42666;SDS011;28280;49.646;14.130;2023-02-11T23:06:06;22.85;;;11.82;;
42666;SDS011;28280;49.646;14.130;2023-02-11T23:11:38;20.00;;;11.45;;
42666;SDS011;28280;49.646;14.130;2023-02-11T23:17:10;20.48;;;12.05;;
42666;SDS011;28280;49.646;14.130;2023-02-11T23:22:42;23.65;;;11.82;;
42666;SDS011;28280;49.646;14.130;2023-02-11T23:28:13;21.42;;;11.60;;
42666;SDS011;28280;49.646;14.130;2023-02-11T23:33:45;21.88;;;11.75;;
42666;SDS011;28280;49.646;14.130;2023-02-11T23:39:17;19.90;;;10.90;;
42666;SDS011;28280;49.646;14.130;2023-02-11T23:44:48;19.73;;;10.93;;
42666;SDS011;28280;49.646;14.130;2023-02-11T23:50:20;19.65;;;10.98;;
42666;SDS011;28280;49.646;14.130;2023-02-11T23:55:51;18.85;;;10.45;;
